createdAt,value
2022-10-22T04:32:40.870Z,17.10
2022-10-22T04:35:07.960Z,17.10
2022-10-22T04:37:35.269Z,17.10
2022-10-22T04:40:02.304Z,17.20
2022-10-22T04:42:29.310Z,17.20
2022-10-22T04:44:56.234Z,17.10
2022-10-22T04:47:23.214Z,17.20
2022-10-22T04:49:50.141Z,17.20
2022-10-22T04:52:17.063Z,17.20
2022-10-22T04:54:44.028Z,17.20
2022-10-22T04:57:10.949Z,17.20
2022-10-22T04:59:37.926Z,17.20
2022-10-22T05:02:04.841Z,17.20
2022-10-22T05:04:32.032Z,17.20
2022-10-22T05:06:58.962Z,17.20
2022-10-22T05:09:25.933Z,17.20
2022-10-22T05:11:53.126Z,17.10
2022-10-22T05:14:21.309Z,17.10
2022-10-22T05:16:49.340Z,17.20
2022-10-22T05:19:34.487Z,17.10
2022-10-22T05:22:02.261Z,17.10
2022-10-22T05:24:29.798Z,17.10
2022-10-22T05:26:57.619Z,17.20
2022-10-22T05:29:24.685Z,17.10
2022-10-22T05:31:51.897Z,17.10
2022-10-22T05:34:19.233Z,17.10
2022-10-22T05:36:46.162Z,17.10
2022-10-22T05:39:13.085Z,17.10
2022-10-22T05:41:40.138Z,17.10
2022-10-22T05:44:07.122Z,17.10
2022-10-22T05:46:35.380Z,17.10
2022-10-22T05:49:03.893Z,17.10
2022-10-22T05:51:32.210Z,17.10
2022-10-22T05:54:00.221Z,17.10
2022-10-22T05:56:28.198Z,17.10
2022-10-22T05:58:55.212Z,17.10
2022-10-22T06:01:23.961Z,17.10
2022-10-22T06:03:53.606Z,17.10
2022-10-22T06:06:22.433Z,17.10
2022-10-22T06:08:50.427Z,17.10
2022-10-22T06:11:18.086Z,17.10
2022-10-22T06:13:45.687Z,17.10
2022-10-22T06:16:12.789Z,17.10
2022-10-22T06:18:39.742Z,17.10
2022-10-22T06:21:07.698Z,17.10
2022-10-22T06:23:35.308Z,17.10
2022-10-22T06:26:02.550Z,17.10
2022-10-22T06:28:29.712Z,17.10
2022-10-22T06:30:59.932Z,17.10
2022-10-22T06:33:27.573Z,17.10
2022-10-22T06:35:54.625Z,17.10
2022-10-22T06:38:21.650Z,17.10
2022-10-22T06:40:48.607Z,17.10
2022-10-22T06:43:15.537Z,17.10
2022-10-22T06:45:42.501Z,17.10
2022-10-22T06:48:09.497Z,17.10
2022-10-22T06:50:36.728Z,17.10
2022-10-22T06:53:03.658Z,17.10
2022-10-22T06:55:30.700Z,17.10
2022-10-22T06:57:57.621Z,17.10
2022-10-22T07:00:24.736Z,17.10
2022-10-22T07:02:57.797Z,17.10
2022-10-22T07:05:26.854Z,17.10
2022-10-22T07:07:53.822Z,17.10
2022-10-22T07:10:20.887Z,17.00
2022-10-22T07:12:47.927Z,17.10
2022-10-22T07:15:15.014Z,17.10
2022-10-22T07:17:42.031Z,17.10
2022-10-22T07:20:09.294Z,17.10
2022-10-22T07:22:36.310Z,17.20
2022-10-22T07:25:06.549Z,17.20
2022-10-22T07:27:34.361Z,17.20
2022-10-22T07:30:01.647Z,17.20
2022-10-22T07:32:28.615Z,17.20
2022-10-22T07:34:55.553Z,17.20
2022-10-22T07:37:22.578Z,17.20
2022-10-22T07:39:49.520Z,17.30
2022-10-22T07:42:16.552Z,17.20
2022-10-22T07:44:43.571Z,17.30
2022-10-22T07:47:10.570Z,17.20
2022-10-22T07:49:37.544Z,17.30
2022-10-22T07:52:06.278Z,17.30
2022-10-22T07:54:33.228Z,17.30
2022-10-22T07:57:00.249Z,17.30
2022-10-22T07:59:27.318Z,17.40
2022-10-22T08:01:54.293Z,17.40
2022-10-22T08:04:21.204Z,17.40
2022-10-22T08:06:48.150Z,17.40
2022-10-22T08:09:15.247Z,17.50
2022-10-22T08:11:42.309Z,17.50
2022-10-22T08:14:09.238Z,17.50
2022-10-22T08:16:36.237Z,17.50
2022-10-22T08:19:03.303Z,17.50
2022-10-22T08:21:30.322Z,17.50
2022-10-22T08:23:57.298Z,17.60
2022-10-22T08:26:24.330Z,17.60
2022-10-22T08:28:51.294Z,17.60
2022-10-22T08:31:18.256Z,17.70
2022-10-22T08:33:45.173Z,17.80
2022-10-22T08:36:12.091Z,17.80
2022-10-22T08:38:39.025Z,17.80
2022-10-22T08:41:08.457Z,17.80
2022-10-22T08:43:35.865Z,17.90
2022-10-22T08:46:11.573Z,17.90
2022-10-22T08:48:44.305Z,17.90
2022-10-22T08:51:31.512Z,18.00
2022-10-22T08:54:17.041Z,18.00
2022-10-22T08:56:45.469Z,18.00
2022-10-22T08:59:25.830Z,18.00
2022-10-22T09:01:53.781Z,18.10
2022-10-22T09:04:36.397Z,18.10
2022-10-22T09:07:03.954Z,18.20
2022-10-22T09:09:35.037Z,18.20
2022-10-22T09:12:02.514Z,18.20
2022-10-22T09:14:29.947Z,18.20
2022-10-22T09:17:06.274Z,18.20
2022-10-22T09:19:48.689Z,18.30
2022-10-22T09:22:25.507Z,18.30
2022-10-22T09:24:59.242Z,18.30
2022-10-22T09:27:28.462Z,18.30
2022-10-22T09:29:55.469Z,18.40
2022-10-22T09:32:22.757Z,18.40
2022-10-22T09:34:50.342Z,18.50
2022-10-22T09:37:18.551Z,18.50
2022-10-22T09:39:46.995Z,18.50
2022-10-22T09:42:19.149Z,18.50
2022-10-22T09:44:54.088Z,18.50
2022-10-22T09:47:42.866Z,18.60
2022-10-22T09:50:36.940Z,18.60
2022-10-22T09:53:19.026Z,18.60
2022-10-22T09:55:50.185Z,18.60
2022-10-22T09:58:17.751Z,18.60
2022-10-22T10:00:46.038Z,18.70
2022-10-22T10:03:17.254Z,18.70
2022-10-22T10:05:46.527Z,18.70
2022-10-22T10:08:14.205Z,18.80
2022-10-22T10:10:52.459Z,18.80
2022-10-22T10:13:28.076Z,18.80
2022-10-22T10:15:58.001Z,18.80
2022-10-22T10:18:24.917Z,18.80
2022-10-22T10:21:12.659Z,18.80
2022-10-22T10:24:02.688Z,18.80
2022-10-22T10:26:35.616Z,18.90
2022-10-22T10:29:02.546Z,18.90
2022-10-22T10:31:48.252Z,18.90
2022-10-22T10:34:18.068Z,18.90
2022-10-22T10:36:52.083Z,18.90
2022-10-22T10:39:24.045Z,19.00
2022-10-22T10:42:08.707Z,19.00
2022-10-22T10:44:47.805Z,19.00
2022-10-22T10:47:20.568Z,19.10
2022-10-22T10:49:47.596Z,19.10
2022-10-22T10:52:32.837Z,19.20
2022-10-22T10:55:22.289Z,19.20
2022-10-22T10:57:52.061Z,19.20
2022-10-22T11:00:20.015Z,19.30
2022-10-22T11:03:02.520Z,19.30
2022-10-22T11:05:36.222Z,19.30
2022-10-22T11:08:11.257Z,19.40
2022-10-22T11:10:40.936Z,19.40
2022-10-22T11:13:28.113Z,19.40
2022-10-22T11:16:05.430Z,19.50
2022-10-22T11:18:36.438Z,19.50
2022-10-22T11:21:07.502Z,19.50
2022-10-22T11:23:38.141Z,19.50
2022-10-22T11:26:11.341Z,19.50
2022-10-22T11:28:41.290Z,19.50
2022-10-22T11:31:14.538Z,19.50
2022-10-22T11:34:09.755Z,19.50
2022-10-22T11:36:37.742Z,19.60
2022-10-22T11:39:05.047Z,19.60
2022-10-22T11:41:33.233Z,19.70
2022-10-22T11:44:21.976Z,19.70
2022-10-22T11:46:56.882Z,19.70
2022-10-22T11:49:27.789Z,19.70
2022-10-22T11:52:17.741Z,19.70
2022-10-22T11:54:44.751Z,19.80
2022-10-22T11:57:14.495Z,19.80
2022-10-22T11:59:49.544Z,19.80
2022-10-22T12:02:22.485Z,19.80
2022-10-22T12:04:49.475Z,19.90
2022-10-22T12:07:48.007Z,19.90
2022-10-22T12:10:26.703Z,19.90
2022-10-22T12:13:03.560Z,19.90
2022-10-22T12:15:30.568Z,20.00
2022-10-22T12:18:01.982Z,20.00
2022-10-22T12:20:29.650Z,20.00
2022-10-22T12:22:58.434Z,20.00
2022-10-22T12:25:33.375Z,20.00
2022-10-22T12:28:02.866Z,20.00
2022-10-22T12:30:31.254Z,20.00
2022-10-22T12:33:00.449Z,20.00
2022-10-22T12:35:28.761Z,20.00
2022-10-22T12:37:57.038Z,20.10
2022-10-22T12:40:25.205Z,20.10
2022-10-22T12:42:53.233Z,20.10
2022-10-22T12:45:20.717Z,20.20
2022-10-22T12:47:48.677Z,20.20
2022-10-22T12:50:17.713Z,20.20
2022-10-22T12:52:44.721Z,20.20
2022-10-22T12:55:19.505Z,20.20
2022-10-22T12:57:47.382Z,20.30
2022-10-22T13:00:21.528Z,20.30
2022-10-22T13:02:49.005Z,20.30
2022-10-22T13:05:27.547Z,20.30
2022-10-22T13:08:05.631Z,20.40
2022-10-22T13:10:37.181Z,20.40
2022-10-22T13:13:06.762Z,20.40
2022-10-22T13:15:38.382Z,20.40
2022-10-22T13:18:19.242Z,20.50
2022-10-22T13:20:52.034Z,20.50
2022-10-22T13:23:19.994Z,20.50
2022-10-22T13:25:56.679Z,20.50
2022-10-22T13:28:24.984Z,20.60
2022-10-22T13:30:53.435Z,20.60
2022-10-22T13:33:29.349Z,20.60
2022-10-22T13:35:56.687Z,20.60
2022-10-22T13:38:24.783Z,20.60
2022-10-22T13:40:51.737Z,20.60
2022-10-22T13:43:19.353Z,20.60
2022-10-22T13:45:47.754Z,20.60
2022-10-22T13:48:21.665Z,20.70
2022-10-22T13:50:49.909Z,20.70
2022-10-22T13:53:19.149Z,20.70
2022-10-22T13:55:46.345Z,20.70
2022-10-22T13:58:14.963Z,20.70
2022-10-22T14:00:43.094Z,20.70
2022-10-22T14:03:10.922Z,20.70
2022-10-22T14:05:37.865Z,20.70
2022-10-22T14:08:09.471Z,20.70
2022-10-22T14:10:36.397Z,20.70
2022-10-22T14:13:03.355Z,20.70
2022-10-22T14:15:30.349Z,20.70
2022-10-22T14:17:58.475Z,20.80
2022-10-22T14:20:27.686Z,20.80
2022-10-22T14:22:54.980Z,20.80
2022-10-22T14:25:23.175Z,20.80
2022-10-22T14:27:50.544Z,20.80
2022-10-22T14:30:19.350Z,20.80
2022-10-22T14:32:48.161Z,20.80
2022-10-22T14:35:17.037Z,20.70
2022-10-22T14:37:44.038Z,20.70
2022-10-22T14:40:13.065Z,20.70
2022-10-22T14:42:41.629Z,20.70
2022-10-22T14:45:34.835Z,20.70
2022-10-22T14:48:01.945Z,20.70
2022-10-22T14:50:28.974Z,20.70
2022-10-22T14:52:58.791Z,20.70
2022-10-22T14:55:27.105Z,20.70
2022-10-22T14:57:54.049Z,20.70
2022-10-22T15:00:21.420Z,20.70
2022-10-22T15:02:48.606Z,20.70
2022-10-22T15:05:15.782Z,20.70
2022-10-22T15:07:43.653Z,20.70
2022-10-22T15:10:10.837Z,20.70
2022-10-22T15:12:37.826Z,20.70
2022-10-22T15:15:05.004Z,20.70
2022-10-22T15:17:32.029Z,20.70
2022-10-22T15:20:01.117Z,20.60
2022-10-22T15:22:28.558Z,20.60
2022-10-22T15:24:55.549Z,20.50
2022-10-22T15:27:22.469Z,20.50
2022-10-22T15:29:49.477Z,20.50
2022-10-22T15:32:16.552Z,20.50
2022-10-22T15:34:43.618Z,20.40
2022-10-22T15:37:12.041Z,20.40
2022-10-22T15:39:39.671Z,20.30
2022-10-22T15:42:06.762Z,20.30
2022-10-22T15:44:33.700Z,20.20
2022-10-22T15:47:03.255Z,20.20
2022-10-22T15:49:30.186Z,20.10
2022-10-22T15:51:57.122Z,20.10
2022-10-22T15:54:28.498Z,20.00
2022-10-22T15:56:56.191Z,20.00
2022-10-22T15:59:23.494Z,20.00
2022-10-22T16:01:50.922Z,19.90
2022-10-22T16:04:17.976Z,19.80
2022-10-22T16:06:46.134Z,19.80
2022-10-22T16:09:14.669Z,19.80
2022-10-22T16:11:41.996Z,19.70
2022-10-22T16:14:10.606Z,19.70
2022-10-22T16:16:39.730Z,19.70
2022-10-22T16:19:07.445Z,19.60
2022-10-22T16:21:34.380Z,19.60
2022-10-22T16:24:06.031Z,19.60
2022-10-22T16:26:33.983Z,19.50
2022-10-22T16:29:01.233Z,19.50
2022-10-22T16:31:28.303Z,19.40
2022-10-22T16:33:55.444Z,19.40
2022-10-22T16:36:22.708Z,19.30
2022-10-22T16:38:49.657Z,19.30
2022-10-22T16:41:18.220Z,19.20
2022-10-22T16:43:46.990Z,19.20
2022-10-22T16:46:14.826Z,19.20
2022-10-22T16:48:45.499Z,19.10
2022-10-22T16:51:13.257Z,19.10
2022-10-22T16:53:40.205Z,19.10
2022-10-22T16:56:10.645Z,19.00
2022-10-22T16:58:37.903Z,19.00
2022-10-22T17:01:08.417Z,18.90
2022-10-22T17:03:35.857Z,18.90
2022-10-22T17:06:04.101Z,18.90
2022-10-22T17:08:31.748Z,18.90
2022-10-22T17:11:04.798Z,18.80
2022-10-22T17:13:31.722Z,18.80
2022-10-22T17:16:02.554Z,18.70
2022-10-22T17:18:29.549Z,18.70
2022-10-22T17:20:58.277Z,18.70
2022-10-22T17:23:25.778Z,18.60
2022-10-22T17:25:57.557Z,18.60
2022-10-22T17:28:24.536Z,18.60
2022-10-22T17:30:51.481Z,18.50
2022-10-22T17:33:18.431Z,18.50
2022-10-22T17:35:45.353Z,18.40
2022-10-22T17:38:12.886Z,18.40
2022-10-22T17:40:39.808Z,18.40
2022-10-22T17:43:06.734Z,18.30
2022-10-22T17:45:34.727Z,18.20
2022-10-22T17:48:01.654Z,18.20
2022-10-22T17:50:28.623Z,18.20
2022-10-22T17:52:55.602Z,18.20
2022-10-22T17:55:22.563Z,18.10
2022-10-22T17:57:49.482Z,18.10
2022-10-22T18:02:49.556Z,18.10
2022-10-22T18:05:16.545Z,18.00
2022-10-22T18:07:43.469Z,18.10
2022-10-22T18:10:10.410Z,18.00
2022-10-22T18:12:37.359Z,18.00
2022-10-22T18:15:04.463Z,18.00
2022-10-22T18:17:32.671Z,18.00
2022-10-22T18:20:02.113Z,18.00
2022-10-22T18:22:29.126Z,18.10
2022-10-22T18:24:56.133Z,18.00
2022-10-22T18:27:23.203Z,18.00
2022-10-22T18:29:50.517Z,17.90
2022-10-22T18:32:17.457Z,17.90
2022-10-22T18:34:44.469Z,17.90
2022-10-22T18:37:11.914Z,17.90
2022-10-22T18:39:39.084Z,17.90
2022-10-22T18:42:07.141Z,17.80
2022-10-22T18:44:34.816Z,17.90
2022-10-22T18:47:01.752Z,17.80
2022-10-22T18:49:28.706Z,17.80
2022-10-22T18:51:55.651Z,17.80
2022-10-22T18:54:23.938Z,17.80
2022-10-22T18:56:52.138Z,17.80
2022-10-22T18:59:22.519Z,17.80
2022-10-22T19:01:51.230Z,18.00
2022-10-22T19:04:18.292Z,17.80
2022-10-22T19:06:45.925Z,17.80
2022-10-22T19:09:14.469Z,17.70
2022-10-22T19:11:42.202Z,17.70
2022-10-22T19:14:09.161Z,17.70
2022-10-22T19:16:37.566Z,17.60
2022-10-22T19:19:05.820Z,17.60
2022-10-22T19:21:33.288Z,17.60
2022-10-22T19:24:00.893Z,17.50
2022-10-22T19:26:29.019Z,17.50
2022-10-22T19:28:57.670Z,17.50
2022-10-22T19:31:25.491Z,17.50
2022-10-22T19:33:55.270Z,17.40
2022-10-22T19:36:24.456Z,17.40
2022-10-22T19:38:51.535Z,17.30
2022-10-22T19:41:20.036Z,17.30
2022-10-22T19:43:48.494Z,17.30
2022-10-22T19:46:15.461Z,17.30
2022-10-22T19:48:42.445Z,17.20
2022-10-22T19:51:11.463Z,17.30
2022-10-22T19:53:38.893Z,17.30
2022-10-22T19:56:07.388Z,17.30
2022-10-22T19:58:34.792Z,17.30
2022-10-22T20:01:05.779Z,17.30
2022-10-22T20:03:33.182Z,17.30
2022-10-22T20:06:00.193Z,17.30
2022-10-22T20:08:27.206Z,17.30
2022-10-22T20:10:54.338Z,17.20
2022-10-22T20:13:21.358Z,17.20
2022-10-22T20:15:48.908Z,17.20
2022-10-22T20:18:16.201Z,17.20
2022-10-22T20:20:43.117Z,17.20
2022-10-22T20:23:10.336Z,17.20
2022-10-22T20:25:41.074Z,17.20
2022-10-22T20:28:08.308Z,17.20
2022-10-22T20:30:35.341Z,17.20
2022-10-22T20:33:02.269Z,17.20
2022-10-22T20:35:29.196Z,17.20
2022-10-22T20:37:56.122Z,17.20
2022-10-22T20:40:25.972Z,17.20
2022-10-22T20:42:53.169Z,17.10
2022-10-22T20:45:20.116Z,17.10
2022-10-22T20:47:51.727Z,17.10
2022-10-22T20:50:29.615Z,17.00
2022-10-22T20:52:56.774Z,17.00
2022-10-22T20:55:23.838Z,17.00
2022-10-22T20:57:50.779Z,17.00
2022-10-22T21:00:17.780Z,16.90
2022-10-22T21:02:44.753Z,16.90
2022-10-22T21:05:11.778Z,16.80
2022-10-22T21:07:38.997Z,16.80
2022-10-22T21:10:06.313Z,16.80
2022-10-22T21:12:33.318Z,16.80
2022-10-22T21:15:00.288Z,16.80
2022-10-22T21:17:27.234Z,16.80
2022-10-22T21:19:54.233Z,16.70
2022-10-22T21:22:21.167Z,16.70
2022-10-22T21:24:48.164Z,16.70
2022-10-22T21:27:15.128Z,16.70
2022-10-22T21:29:42.098Z,16.60
2022-10-22T21:32:09.342Z,16.60
2022-10-22T21:34:38.855Z,16.70
2022-10-22T21:37:06.150Z,16.70
2022-10-22T21:39:33.090Z,16.60
2022-10-22T21:42:00.114Z,16.60
2022-10-22T21:44:27.046Z,16.60
2022-10-22T21:46:54.026Z,16.60
2022-10-22T21:49:20.954Z,16.60
2022-10-22T21:51:47.875Z,16.30
2022-10-22T21:54:14.797Z,16.60
2022-10-22T21:56:41.746Z,16.60
2022-10-22T21:59:08.778Z,16.50
2022-10-22T22:01:35.810Z,16.50
2022-10-22T22:04:03.240Z,16.60
2022-10-22T22:06:33.532Z,16.50
2022-10-22T22:09:01.343Z,16.50
2022-10-22T22:11:28.785Z,16.50
2022-10-22T22:13:56.738Z,16.40
2022-10-22T22:16:28.299Z,16.40
2022-10-22T22:19:00.263Z,16.30
2022-10-22T22:21:27.474Z,16.30
2022-10-22T22:23:54.530Z,16.30
2022-10-22T22:26:25.470Z,16.30
2022-10-22T22:28:55.906Z,16.20
2022-10-22T22:31:27.818Z,16.20
2022-10-22T22:34:01.301Z,16.10
2022-10-22T22:36:28.653Z,16.10
2022-10-22T22:38:56.435Z,16.10
2022-10-22T22:41:23.553Z,16.10
2022-10-22T22:43:50.553Z,16.10
2022-10-22T22:46:17.572Z,16.00
2022-10-22T22:48:46.897Z,16.00
2022-10-22T22:51:13.854Z,16.10
2022-10-22T22:53:40.785Z,16.10
2022-10-22T22:56:10.565Z,16.10
2022-10-22T22:58:38.106Z,16.10
2022-10-22T23:01:24.263Z,16.10
2022-10-22T23:03:58.555Z,16.00
2022-10-22T23:06:26.577Z,15.90
2022-10-22T23:08:54.366Z,15.90
2022-10-22T23:11:22.105Z,15.80
2022-10-22T23:13:51.750Z,15.70
2022-10-22T23:16:20.737Z,15.70
2022-10-22T23:18:48.076Z,15.70
2022-10-22T23:21:16.550Z,15.60
2022-10-22T23:23:47.933Z,15.60
2022-10-22T23:26:16.730Z,15.60
2022-10-22T23:28:43.665Z,15.60
